Time;durP1;ratioP1;P1;durP2;ratioP2;P2;SDS_P1;SDS_P2;PMS_P1;PMS_P2;Temp;Humidity;BMP_temperature;BMP_pressure;BME280_temperature;BME280_humidity;BME280_pressure;Samples;Min_cycle;Max_cycle;Signal;HPM_P1;HPM_P2
2023/11/08 00:05:53;;;;;;;21.00;10.80;;;;;;;11.63;91.62;99830.69;678510;1265;139368;-81
2023/11/08 00:20:56;;;;;;;20.50;11.00;;;;;;;11.33;91.76;99827.94;676493;1266;139298;-80
2023/11/08 00:35:59;;;;;;;21.80;10.00;;;;;;;11.25;92.32;99825.98;674527;1267;138826;-81
2023/11/08 00:51:03;;;;;;;25.70;12.40;;;;;;;11.27;92.74;99828.59;677110;1260;139547;-80
2023/11/08 01:06:06;;;;;;;22.30;10.40;;;;;;;11.24;92.90;99806.79;677137;1271;140989;-80
2023/11/08 01:21:09;;;;;;;21.80;11.90;;;;;;;11.23;92.94;99807.65;677346;1263;138802;-79
2023/11/08 01:36:13;;;;;;;20.90;10.80;;;;;;;11.18;93.07;99801.44;678869;1272;138856;-81
2023/11/08 01:51:18;;;;;;;20.80;11.60;;;;;;;11.10;93.51;99787.89;675752;1264;139190;-81
2023/11/08 02:06:21;;;;;;;20.30;10.90;;;;;;;11.09;94.66;99786.05;681139;1276;139479;-81
2023/11/08 02:21:26;;;;;;;21.40;10.90;;;;;;;11.10;94.73;99785.09;675571;1279;139585;-81
2023/11/08 02:36:30;;;;;;;19.20;10.50;;;;;;;11.31;93.87;99781.83;680048;1263;139780;-82
2023/11/08 02:51:33;;;;;;;16.90;10.00;;;;;;;11.28;94.17;99775.44;679193;1264;139546;-81
2023/11/08 03:06:36;;;;;;;14.70;8.70;;;;;;;11.22;94.60;99780.25;671509;1263;139272;-82
2023/11/08 03:21:44;;;;;;;16.10;9.20;;;;;;;11.26;94.25;99792.41;675985;1271;138920;-82
2023/11/08 03:36:47;;;;;;;20.30;9.90;;;;;;;11.24;94.24;99801.25;680560;1260;139333;-82
2023/11/08 03:51:50;;;;;;;33.60;13.40;;;;;;;11.11;95.55;99814.60;676329;1263;139256;-82
2023/11/08 04:06:54;;;;;;;24.50;15.70;;;;;;;11.06;96.82;99812.96;679641;1263;139290;-82
2023/11/08 04:21:58;;;;;;;19.00;10.60;;;;;;;11.06;96.63;99811.88;672968;1262;139048;-81
2023/11/08 04:37:05;;;;;;;25.60;15.20;;;;;;;10.92;98.15;99809.05;678892;1259;139352;-81
2023/11/08 04:52:08;;;;;;;16.80;10.40;;;;;;;10.90;99.23;99811.74;679480;1260;139013;-81
2023/11/08 05:07:13;;;;;;;17.80;9.70;;;;;;;10.98;99.40;99807.76;675411;1260;139758;-81
2023/11/08 05:22:17;;;;;;;19.60;11.70;;;;;;;10.90;100.00;99797.32;672926;1264;138863;-81
2023/11/08 05:37:21;;;;;;;23.30;13.50;;;;;;;10.82;100.00;99798.64;675780;1262;139031;-81
2023/11/08 05:52:25;;;;;;;18.50;11.30;;;;;;;10.50;100.00;99808.73;677593;1275;139728;-80
2023/11/08 06:07:28;;;;;;;20.20;11.70;;;;;;;10.58;100.00;99826.11;676396;1259;140129;-81
2023/11/08 06:22:32;;;;;;;22.70;13.20;;;;;;;10.63;100.00;99836.13;672301;1264;139481;-81
2023/11/08 06:37:35;;;;;;;48.10;23.50;;;;;;;10.64;100.00;99844.60;676909;1259;139573;-81
2023/11/08 06:52:39;;;;;;;22.80;14.50;;;;;;;10.77;100.00;99850.88;672491;1259;139686;-80
2023/11/08 07:07:42;;;;;;;33.00;17.80;;;;;;;10.81;100.00;99859.08;673341;1260;139725;-80
2023/11/08 07:22:45;;;;;;;29.60;17.70;;;;;;;10.85;100.00;99864.54;674652;1260;139153;-81
2023/11/08 07:37:49;;;;;;;26.20;16.50;;;;;;;11.13;100.00;99877.92;673944;1259;139597;-81
2023/11/08 07:52:52;;;;;;;32.50;18.10;;;;;;;11.23;100.00;99892.55;674880;1264;138807;-82
2023/11/08 08:07:55;;;;;;;26.80;16.00;;;;;;;11.48;100.00;99888.92;681398;1263;140307;-81
2023/11/08 08:22:59;;;;;;;38.90;25.40;;;;;;;11.48;100.00;99887.11;675389;1259;139644;-82
2023/11/08 08:38:02;;;;;;;26.00;17.60;;;;;;;11.96;100.00;99884.32;673667;1262;139869;-82
2023/11/08 08:53:06;;;;;;;17.80;10.80;;;;;;;12.15;99.94;99892.66;674762;1263;156078;-81
2023/11/08 09:08:10;;;;;;;14.40;9.70;;;;;;;12.29;98.66;99911.52;671539;1259;139268;-82
2023/11/08 09:23:13;;;;;;;21.70;10.90;;;;;;;12.32;96.78;99915.24;675493;1263;139251;-82
2023/11/08 09:38:17;;;;;;;20.00;12.60;;;;;;;12.28;95.37;99923.35;675195;1263;139982;-81
2023/11/08 09:53:21;;;;;;;15.90;10.60;;;;;;;12.16;92.51;99917.08;674907;1259;139409;-81
2023/11/08 10:08:24;;;;;;;18.90;12.00;;;;;;;12.21;90.39;99922.35;674021;1262;139125;-80
2023/11/08 10:23:28;;;;;;;20.50;11.40;;;;;;;12.84;88.85;99910.87;672385;1262;139688;-81
2023/11/08 10:38:32;;;;;;;14.50;9.30;;;;;;;13.69;84.52;99900.08;671886;1262;140272;-81
2023/11/08 10:53:35;;;;;;;12.40;6.90;;;;;;;13.19;82.30;99880.73;669398;1264;139379;-82
2023/11/08 11:08:43;;;;;;;9.30;5.90;;;;;;;14.32;79.23;99869.34;677670;1269;139335;-83
2023/11/08 11:23:46;;;;;;;12.90;7.60;;;;;;;13.42;77.72;99873.77;672833;1263;139140;-82
2023/11/08 11:39:12;;;;;;;9.90;6.80;;;;;;;13.53;79.38;99878.92;675696;1259;140150;-82
2023/11/08 11:54:17;;;;;;;8.80;5.90;;;;;;;13.72;77.99;99880.77;675638;1262;139098;-82
2023/11/08 12:09:23;;;;;;;25.00;9.40;;;;;;;12.89;78.43;99872.60;676885;1262;139765;-83
2023/11/08 12:24:34;;;;;;;13.50;6.80;;;;;;;13.00;79.36;99872.53;675276;1262;139166;-82
2023/11/08 12:39:37;;;;;;;11.40;6.40;;;;;;;13.17;77.99;99862.00;679093;1262;140302;-82
2023/11/08 12:54:41;;;;;;;6.70;4.10;;;;;;;13.16;77.74;99863.70;677970;1260;140409;-83
2023/11/08 13:09:44;;;;;;;20.80;8.80;;;;;;;12.93;77.58;99862.34;679722;1262;139609;-82
2023/11/08 13:24:50;;;;;;;14.70;7.90;;;;;;;12.75;79.04;99870.23;676182;1262;140050;-83
2023/11/08 13:39:55;;;;;;;12.20;5.40;;;;;;;12.59;80.63;99870.23;674568;1264;139338;-81
2023/11/08 13:55:02;;;;;;;20.00;8.60;;;;;;;12.53;82.36;99868.11;678212;1268;140954;-81
2023/11/08 14:10:06;;;;;;;13.70;7.00;;;;;;;12.43;83.59;99869.21;673777;1262;139470;-80
2023/11/08 14:25:09;;;;;;;9.00;5.50;;;;;;;12.33;84.52;99866.84;671713;1263;139312;-80
2023/11/08 14:40:13;;;;;;;11.90;7.10;;;;;;;12.31;85.12;99872.43;673516;1262;138981;-81
2023/11/08 14:55:17;;;;;;;17.20;10.20;;;;;;;12.12;86.54;99869.91;677917;1262;139239;-81
2023/11/08 15:10:21;;;;;;;20.40;8.50;;;;;;;12.05;86.12;99878.17;674298;1265;139283;-81
2023/11/08 15:25:25;;;;;;;14.90;6.70;;;;;;;11.94;86.80;99877.83;675593;1263;139926;-80
2023/11/08 15:40:29;;;;;;;22.60;12.30;;;;;;;11.79;87.72;99882.27;674861;1262;139484;-81
2023/11/08 15:55:32;;;;;;;37.80;17.20;;;;;;;11.75;88.32;99884.80;672654;1263;139244;-79
2023/11/08 16:10:37;;;;;;;46.90;19.10;;;;;;;11.28;91.15;99887.65;673838;1262;139315;-81
2023/11/08 16:25:41;;;;;;;27.00;12.00;;;;;;;10.75;94.54;99896.38;675574;1262;139887;-80
2023/11/08 16:40:44;;;;;;;13.50;7.60;;;;;;;10.85;94.39;99907.98;671845;1262;139848;-81
2023/11/08 16:55:48;;;;;;;20.90;11.10;;;;;;;11.01;93.01;99917.56;675553;1261;139781;-81
2023/11/08 17:10:51;;;;;;;29.30;14.50;;;;;;;10.54;97.68;99927.35;672382;1276;140395;-81
2023/11/08 17:25:56;;;;;;;27.10;12.60;;;;;;;10.58;98.73;99934.91;675763;1265;139150;-80
2023/11/08 17:41:00;;;;;;;36.20;14.90;;;;;;;10.60;99.39;99945.03;674664;1263;141186;-81
2023/11/08 17:56:05;;;;;;;27.60;15.40;;;;;;;11.00;98.11;99948.80;674087;1263;139898;-80
2023/11/08 18:11:10;;;;;;;24.30;13.40;;;;;;;10.96;98.68;99949.19;675250;1263;139176;-80
2023/11/08 18:26:14;;;;;;;46.30;18.40;;;;;;;10.79;99.62;99958.77;676666;1262;139616;-80
2023/11/08 18:41:17;;;;;;;19.20;10.30;;;;;;;10.78;99.69;99963.46;674378;1262;139007;-81
2023/11/08 18:56:21;;;;;;;19.30;10.50;;;;;;;10.78;99.06;99967.77;680159;1263;139179;-80
2023/11/08 19:11:28;;;;;;;50.00;20.70;;;;;;;10.65;100.00;99982.48;675338;1276;139206;-83
2023/11/08 19:26:31;;;;;;;14.10;9.10;;;;;;;10.79;100.00;99999.95;677915;1272;140004;-81
2023/11/08 19:41:35;;;;;;;19.60;10.30;;;;;;;10.86;100.00;99998.61;675892;1263;139744;-81
2023/11/08 19:56:39;;;;;;;17.40;8.80;;;;;;;10.86;100.00;100003.43;672340;1263;139798;-80
2023/11/08 20:11:43;;;;;;;12.90;8.30;;;;;;;10.86;100.00;100004.48;674575;1270;139885;-80
2023/11/08 20:26:46;;;;;;;14.30;8.80;;;;;;;10.85;100.00;100009.13;676016;1263;139234;-81
2023/11/08 20:41:50;;;;;;;15.20;8.90;;;;;;;10.89;100.00;100010.38;676135;1267;139768;-81
2023/11/08 20:56:53;;;;;;;10.60;6.50;;;;;;;10.79;100.00;100004.48;675184;1263;177136;-80
2023/11/08 21:11:57;;;;;;;14.10;6.80;;;;;;;10.74;100.00;100006.48;671534;1274;139533;-81
2023/11/08 21:27:00;;;;;;;20.00;8.80;;;;;;;10.67;100.00;100008.70;674467;1272;139858;-81
2023/11/08 21:42:04;;;;;;;13.90;7.60;;;;;;;10.60;100.00;100010.88;676187;1264;139554;-81
2023/11/08 21:57:09;;;;;;;15.20;6.70;;;;;;;10.52;100.00;100014.41;677326;1260;139703;-82
2023/11/08 22:12:13;;;;;;;13.70;7.30;;;;;;;10.37;100.00;100011.45;680950;1263;140552;-81
2023/11/08 22:27:16;;;;;;;12.70;7.50;;;;;;;10.62;100.00;100006.55;675363;1260;139590;-80
2023/11/08 22:42:20;;;;;;;15.30;7.60;;;;;;;10.51;100.00;100016.18;679685;1264;140612;-80
2023/11/08 22:57:23;;;;;;;15.80;7.50;;;;;;;10.44;100.00;100020.95;680615;1261;140580;-81
2023/11/08 23:12:27;;;;;;;12.70;6.40;;;;;;;10.46;100.00;100025.14;677964;1263;139145;-81
2023/11/08 23:27:30;;;;;;;12.20;7.00;;;;;;;10.39;100.00;100017.77;678281;1262;140485;-80
2023/11/08 23:42:33;;;;;;;16.80;8.50;;;;;;;10.40;100.00;100014.14;677092;1259;140808;-80
2023/11/08 23:57:36;;;;;;;8.60;5.90;;;;;;;10.39;100.00;100008.77;673463;1259;141125;-80
